Terminal Aerodrome Forecast
Issued by NWS

Home | Current Version | Previous Version | Text Only | Print | Product List | Glossary On
Versions: 1 2 3 4 5 6 7 8 9 10 11 12 13 14 15 16 17 18 19 20 21
000
FTUS44 KLIX 221100 RRA
TAFHUM
TAF
KHUM 221140Z 2212/2312 03008KT P6SM SKC
     FM222000 03007KT P6SM VCTS SCT050CB
     FM222300 03006KT P6SM FEW050 SCT250=

USA.gov is the U.S. government's official web portal to all federal, state and local government web resources and services.